Time;durP1;ratioP1;P1;durP2;ratioP2;P2;SDS_P1;SDS_P2;PMS_P1;PMS_P2;Temp;Humidity;BMP_temperature;BMP_pressure;BME280_temperature;BME280_humidity;BME280_pressure;Samples;Min_cycle;Max_cycle;Signal;HPM_P1;HPM_P2
2022/06/27 00:00:20;;;;;;;;;;;16.90;99.90;;;;;;5096682;28;19924;-75
2022/06/27 00:02:45;;;;;;;;;;;16.80;99.90;;;;;;5092460;28;19943;-75
2022/06/27 00:05:11;;;;;;;;;;;16.80;99.90;;;;;;5083230;28;19912;-75
2022/06/27 00:07:37;;;;;;;;;;;16.80;99.90;;;;;;5090487;28;19913;-75
2022/06/27 00:10:03;;;;;;;;;;;16.80;99.90;;;;;;5093902;28;19918;-74
2022/06/27 00:12:29;;;;;;;;;;;16.90;99.90;;;;;;5096595;28;19950;-74
2022/06/27 00:14:57;;;;;;;;;;;17.00;99.90;;;;;;5092874;28;19951;-75
2022/06/27 00:17:23;;;;;;;;;;;17.00;99.90;;;;;;5084110;28;20007;-76
2022/06/27 00:19:48;;;;;;;;;;;16.90;99.90;;;;;;5095400;28;20015;-75
2022/06/27 00:22:14;;;;;;;;;;;16.90;99.90;;;;;;5096266;28;19919;-75
2022/06/27 00:24:39;;;;;;;;;;;16.90;99.90;;;;;;5095278;28;19920;-75
2022/06/27 00:27:05;;;;;;;;;;;16.90;99.90;;;;;;5096746;28;19958;-75
2022/06/27 00:29:31;;;;;;;;;;;16.80;99.90;;;;;;5089390;28;19961;-75
2022/06/27 00:31:56;;;;;;;;;;;16.70;99.90;;;;;;5082159;28;19912;-75
2022/06/27 00:34:22;;;;;;;;;;;16.70;99.90;;;;;;5094181;28;20211;-75
2022/06/27 00:36:47;;;;;;;;;;;16.80;99.90;;;;;;5092052;28;20227;-75
2022/06/27 00:39:14;;;;;;;;;;;16.80;99.90;;;;;;5094840;28;19916;-75
2022/06/27 00:41:40;;;;;;;;;;;16.80;99.90;;;;;;5094730;28;19916;-75
2022/06/27 00:44:05;;;;;;;;;;;16.70;99.90;;;;;;5080438;28;20303;-75
2022/06/27 00:46:31;;;;;;;;;;;16.70;99.90;;;;;;5084290;28;19919;-75
2022/06/27 00:48:57;;;;;;;;;;;16.70;99.90;;;;;;5092803;28;20513;-75
2022/06/27 00:51:24;;;;;;;;;;;16.70;99.90;;;;;;5088175;28;19912;-75
2022/06/27 00:53:53;;;;;;;;;;;16.70;99.90;;;;;;5096860;28;19912;-75
2022/06/27 00:56:18;;;;;;;;;;;16.80;99.90;;;;;;5088982;28;19920;-75
2022/06/27 00:58:44;;;;;;;;;;;16.80;99.90;;;;;;5085102;28;20015;-75
2022/06/27 01:01:10;;;;;;;;;;;16.80;99.90;;;;;;5081064;28;19935;-76
2022/06/27 01:03:35;;;;;;;;;;;16.70;99.90;;;;;;5096487;28;20286;-75
2022/06/27 01:06:02;;;;;;;;;;;16.70;99.90;;;;;;5093414;28;19919;-75
2022/06/27 01:08:27;;;;;;;;;;;16.70;99.90;;;;;;5084158;28;19916;-75
2022/06/27 01:10:53;;;;;;;;;;;16.70;99.90;;;;;;5081069;28;19935;-76
2022/06/27 01:13:20;;;;;;;;;;;16.70;99.90;;;;;;5084180;28;19970;-75
2022/06/27 01:15:46;;;;;;;;;;;16.70;99.90;;;;;;5082630;28;19920;-75
2022/06/27 01:18:12;;;;;;;;;;;16.70;99.90;;;;;;5092566;28;20188;-75
2022/06/27 01:20:40;;;;;;;;;;;16.70;99.90;;;;;;5083277;28;19966;-75
2022/06/27 01:23:06;;;;;;;;;;;16.70;99.90;;;;;;5092982;28;19919;-74
2022/06/27 01:25:34;;;;;;;;;;;16.70;99.90;;;;;;5089530;28;19916;-74
2022/06/27 01:28:00;;;;;;;;;;;16.60;99.90;;;;;;5092376;28;21300;-75
2022/06/27 01:30:26;;;;;;;;;;;16.50;99.90;;;;;;5096900;28;19915;-74
2022/06/27 01:32:51;;;;;;;;;;;16.50;99.90;;;;;;5080130;28;19908;-75
2022/06/27 01:35:17;;;;;;;;;;;16.60;99.90;;;;;;5083759;28;19966;-74
2022/06/27 01:37:43;;;;;;;;;;;16.60;99.90;;;;;;5077927;28;20003;-75
2022/06/27 01:40:08;;;;;;;;;;;16.60;99.90;;;;;;5079414;28;19920;-75
2022/06/27 01:42:34;;;;;;;;;;;16.60;99.90;;;;;;5080355;28;20074;-75
2022/06/27 01:45:01;;;;;;;;;;;16.60;99.90;;;;;;5079854;28;19912;-75
2022/06/27 01:47:27;;;;;;;;;;;16.60;99.90;;;;;;5091411;28;19964;-75
2022/06/27 01:49:53;;;;;;;;;;;16.60;99.90;;;;;;5093011;28;19923;-75
2022/06/27 01:52:19;;;;;;;;;;;16.60;99.90;;;;;;5093253;28;19924;-75
2022/06/27 01:54:44;;;;;;;;;;;16.60;99.90;;;;;;5122145;27;19916;-75
2022/06/27 01:57:10;;;;;;;;;;;16.60;99.90;;;;;;5087103;28;19920;-75
2022/06/27 01:59:36;;;;;;;;;;;16.60;99.90;;;;;;5076624;28;19927;-75
2022/06/27 02:02:02;;;;;;;;;;;16.60;99.90;;;;;;5091837;28;19919;-75
2022/06/27 02:04:29;;;;;;;;;;;16.60;99.90;;;;;;5088443;28;19912;-75
2022/06/27 02:06:55;;;;;;;;;;;16.60;99.90;;;;;;5092710;28;19967;-76
2022/06/27 02:09:21;;;;;;;;;;;16.50;99.90;;;;;;5085254;28;19916;-76
2022/06/27 02:11:49;;;;;;;;;;;16.50;99.90;;;;;;5089770;28;19966;-76
2022/06/27 02:14:15;;;;;;;;;;;16.40;99.90;;;;;;5092693;28;19927;-76
2022/06/27 02:16:41;;;;;;;;;;;16.40;99.90;;;;;;5084730;28;19917;-78
2022/06/27 02:19:07;;;;;;;;;;;16.40;99.90;;;;;;5083555;28;20314;-77
2022/06/27 02:21:33;;;;;;;;;;;16.30;99.90;;;;;;5087425;28;19920;-77
2022/06/27 02:23:58;;;;;;;;;;;16.20;99.90;;;;;;5091921;28;20292;-77
2022/06/27 02:26:25;;;;;;;;;;;16.30;99.90;;;;;;5085037;28;19916;-78
2022/06/27 02:28:52;;;;;;;;;;;16.30;99.90;;;;;;5092068;28;19954;-77
2022/06/27 02:31:18;;;;;;;;;;;16.20;99.90;;;;;;5089375;28;19920;-78
2022/06/27 02:33:44;;;;;;;;;;;16.10;99.90;;;;;;5090187;28;19912;-82
2022/06/27 02:36:13;;;;;;;;;;;16.10;99.90;;;;;;5077893;28;19913;-77
2022/06/27 02:38:42;;;;;;;;;;;16.10;99.90;;;;;;5075828;28;19916;-77
2022/06/27 02:41:12;;;;;;;;;;;16.20;99.90;;;;;;5091236;28;19912;-76
2022/06/27 02:43:39;;;;;;;;;;;16.20;99.90;;;;;;5078892;28;19927;-77
2022/06/27 02:46:05;;;;;;;;;;;16.20;99.90;;;;;;5074260;28;19916;-77
2022/06/27 02:48:31;;;;;;;;;;;16.20;99.90;;;;;;5084716;28;19950;-77
2022/06/27 02:50:59;;;;;;;;;;;16.10;99.90;;;;;;5077820;28;19952;-77
2022/06/27 02:53:29;;;;;;;;;;;16.10;99.90;;;;;;5079754;28;19920;-77
2022/06/27 02:55:55;;;;;;;;;;;16.10;99.90;;;;;;5076435;28;20315;-77
2022/06/27 02:58:44;;;;;;;;;;;16.00;99.90;;;;;;5082625;28;19964;-78
2022/06/27 03:01:10;;;;;;;;;;;16.00;99.90;;;;;;5073998;28;20005;-77
2022/06/27 03:03:36;;;;;;;;;;;16.00;99.90;;;;;;5080226;28;20308;-77
2022/06/27 03:06:03;;;;;;;;;;;16.00;99.90;;;;;;5083546;28;20011;-77
2022/06/27 03:08:39;;;;;;;;;;;15.90;99.90;;;;;;5075400;28;19915;-76
2022/06/27 03:11:05;;;;;;;;;;;16.00;99.90;;;;;;5090990;28;19917;-76
2022/06/27 03:13:30;;;;;;;;;;;16.00;99.90;;;;;;5083993;28;19920;-76
2022/06/27 03:15:56;;;;;;;;;;;16.00;99.90;;;;;;5093497;28;19934;-77
2022/06/27 03:18:22;;;;;;;;;;;16.00;99.90;;;;;;5083707;28;19916;-77
2022/06/27 03:20:47;;;;;;;;;;;16.00;99.90;;;;;;5090240;28;20299;-77
2022/06/27 03:23:13;;;;;;;;;;;15.90;99.90;;;;;;5090446;28;19919;-77
2022/06/27 03:25:40;;;;;;;;;;;15.90;99.90;;;;;;5083557;28;20035;-77
2022/06/27 03:28:06;;;;;;;;;;;15.80;99.90;;;;;;5086140;28;20028;-77
2022/06/27 03:30:31;;;;;;;;;;;15.80;99.90;;;;;;5096747;28;19999;-77
2022/06/27 03:32:57;;;;;;;;;;;15.60;99.90;;;;;;5127716;27;19920;-77
2022/06/27 03:35:22;;;;;;;;;;;15.60;99.90;;;;;;5093570;28;19912;-76
2022/06/27 03:37:48;;;;;;;;;;;15.50;99.90;;;;;;5092060;28;20061;-77
2022/06/27 03:40:13;;;;;;;;;;;15.50;99.90;;;;;;5095218;28;19927;-77
2022/06/27 03:42:39;;;;;;;;;;;15.40;99.90;;;;;;5096827;28;19919;-77
2022/06/27 03:45:06;;;;;;;;;;;15.40;99.90;;;;;;5092131;28;20317;-77
2022/06/27 03:47:44;;;;;;;;;;;15.30;99.90;;;;;;5089755;28;20226;-76
2022/06/27 03:50:10;;;;;;;;;;;15.30;99.90;;;;;;5086913;28;19965;-77
2022/06/27 03:52:37;;;;;;;;;;;15.30;99.90;;;;;;5081978;28;20003;-77
2022/06/27 03:55:04;;;;;;;;;;;15.30;99.90;;;;;;5082325;28;19920;-77
2022/06/27 03:57:33;;;;;;;;;;;15.40;99.90;;;;;;5083557;28;20003;-78
2022/06/27 04:00:02;;;;;;;;;;;15.50;99.90;;;;;;5093942;28;19959;-77
2022/06/27 04:02:30;;;;;;;;;;;15.40;99.90;;;;;;5091959;28;20311;-77
2022/06/27 04:04:59;;;;;;;;;;;15.40;99.90;;;;;;5089427;28;19913;-77
2022/06/27 04:07:25;;;;;;;;;;;15.40;99.90;;;;;;5092890;28;19915;-77
2022/06/27 04:09:51;;;;;;;;;;;15.40;99.90;;;;;;5092709;28;19942;-77
2022/06/27 04:12:18;;;;;;;;;;;15.50;99.90;;;;;;5088338;28;19908;-77
2022/06/27 04:14:44;;;;;;;;;;;15.50;99.90;;;;;;5089950;28;20346;-77
2022/06/27 04:17:10;;;;;;;;;;;15.50;99.90;;;;;;5084505;28;19913;-77
2022/06/27 04:19:36;;;;;;;;;;;15.40;99.90;;;;;;5082856;28;20188;-79
2022/06/27 04:22:02;;;;;;;;;;;15.50;99.90;;;;;;5094058;28;20314;-78
2022/06/27 04:24:27;;;;;;;;;;;15.30;99.90;;;;;;5090832;28;19908;-77
2022/06/27 04:26:53;;;;;;;;;;;15.20;99.90;;;;;;5091978;28;19919;-77
2022/06/27 04:32:22;;;;;;;;;;;15.30;99.90;;;;;;5078702;28;19928;-77
2022/06/27 04:34:48;;;;;;;;;;;15.30;99.90;;;;;;5089307;28;19919;-77
2022/06/27 04:37:15;;;;;;;;;;;15.40;99.90;;;;;;5092778;28;19916;-77
2022/06/27 04:39:41;;;;;;;;;;;15.50;99.90;;;;;;5092730;28;20307;-77
2022/06/27 04:42:07;;;;;;;;;;;15.60;99.90;;;;;;5094872;28;19912;-78
2022/06/27 04:44:34;;;;;;;;;;;15.70;99.90;;;;;;5087669;28;19916;-79
2022/06/27 04:47:02;;;;;;;;;;;15.80;99.90;;;;;;5092609;28;19943;-81
2022/06/27 04:49:28;;;;;;;;;;;15.90;99.90;;;;;;5089900;28;20269;-77
2022/06/27 04:51:54;;;;;;;;;;;15.90;99.90;;;;;;5105397;28;20218;-77
2022/06/27 04:54:22;;;;;;;;;;;16.00;99.90;;;;;;5084902;28;19924;-76
2022/06/27 04:56:48;;;;;;;;;;;16.10;99.90;;;;;;5092468;28;19942;-77
2022/06/27 04:59:14;;;;;;;;;;;16.10;99.90;;;;;;5087962;28;19928;-76
2022/06/27 05:01:40;;;;;;;;;;;16.20;99.90;;;;;;5088831;28;20265;-77
2022/06/27 05:04:05;;;;;;;;;;;16.20;99.90;;;;;;5090136;28;19920;-77
2022/06/27 05:06:31;;;;;;;;;;;16.20;99.90;;;;;;5089477;28;19930;-77
2022/06/27 05:08:57;;;;;;;;;;;16.20;99.90;;;;;;5086704;28;19947;-76
2022/06/27 05:11:22;;;;;;;;;;;16.20;99.90;;;;;;5078502;28;20010;-76
2022/06/27 05:13:48;;;;;;;;;;;16.30;99.90;;;;;;5082798;28;19912;-76
2022/06/27 05:16:16;;;;;;;;;;;16.30;99.90;;;;;;5087539;28;19930;-76
2022/06/27 05:18:41;;;;;;;;;;;16.30;99.90;;;;;;5071890;28;19955;-77
2022/06/27 05:21:08;;;;;;;;;;;16.30;99.90;;;;;;5088578;28;19974;-78
2022/06/27 05:23:36;;;;;;;;;;;16.30;99.90;;;;;;5116427;27;19920;-79
2022/06/27 05:26:02;;;;;;;;;;;16.30;99.90;;;;;;5087346;28;20419;-77
2022/06/27 05:28:27;;;;;;;;;;;16.30;99.90;;;;;;5089125;28;20003;-78
2022/06/27 05:30:53;;;;;;;;;;;16.40;99.90;;;;;;5092437;28;19927;-77
2022/06/27 05:33:18;;;;;;;;;;;16.30;99.90;;;;;;5075918;28;19920;-77
2022/06/27 05:35:44;;;;;;;;;;;16.40;99.90;;;;;;5088798;28;19940;-77
2022/06/27 05:38:10;;;;;;;;;;;16.50;99.90;;;;;;5090975;28;19946;-77
2022/06/27 05:40:36;;;;;;;;;;;16.50;99.90;;;;;;5092690;28;23372;-78
2022/06/27 05:43:03;;;;;;;;;;;16.60;99.90;;;;;;5090418;28;19920;-77
2022/06/27 05:45:29;;;;;;;;;;;16.70;99.90;;;;;;5103037;28;19912;-78
2022/06/27 05:47:59;;;;;;;;;;;16.70;99.90;;;;;;5104147;28;20248;-77
2022/06/27 05:50:25;;;;;;;;;;;16.70;99.90;;;;;;5090772;28;19920;-77
2022/06/27 05:52:52;;;;;;;;;;;16.80;99.90;;;;;;5088146;28;19951;-76
2022/06/27 05:55:19;;;;;;;;;;;16.90;99.90;;;;;;5085868;28;20244;-76
2022/06/27 05:57:44;;;;;;;;;;;16.90;99.90;;;;;;5087980;28;19920;-76
2022/06/27 06:00:11;;;;;;;;;;;17.00;99.90;;;;;;5092758;28;19981;-76
2022/06/27 06:02:38;;;;;;;;;;;17.10;99.90;;;;;;5085754;28;19912;-76
2022/06/27 06:05:04;;;;;;;;;;;17.20;99.90;;;;;;5092493;28;20397;-76
2022/06/27 06:07:30;;;;;;;;;;;17.20;99.90;;;;;;5088630;28;19916;-76
2022/06/27 06:09:55;;;;;;;;;;;17.20;99.90;;;;;;5088393;28;19912;-76
2022/06/27 06:12:21;;;;;;;;;;;17.20;99.90;;;;;;5093428;28;19919;-77
2022/06/27 06:14:47;;;;;;;;;;;17.30;99.90;;;;;;5085675;28;20061;-76
2022/06/27 06:17:13;;;;;;;;;;;17.40;99.90;;;;;;5085155;28;20039;-76
2022/06/27 06:19:40;;;;;;;;;;;17.30;99.90;;;;;;5084475;28;19924;-76
2022/06/27 06:22:06;;;;;;;;;;;17.30;99.90;;;;;;5086256;28;19912;-76
2022/06/27 06:24:31;;;;;;;;;;;17.30;99.90;;;;;;5087113;28;19924;-76
2022/06/27 06:27:00;;;;;;;;;;;17.30;99.90;;;;;;5088803;28;19919;-76
2022/06/27 06:29:26;;;;;;;;;;;17.30;99.90;;;;;;5090556;28;19924;-77
2022/06/27 06:31:51;;;;;;;;;;;17.30;99.90;;;;;;5090465;28;19919;-76
2022/06/27 06:34:17;;;;;;;;;;;17.40;99.90;;;;;;5087963;28;20215;-75
2022/06/27 06:36:44;;;;;;;;;;;17.40;99.90;;;;;;5087051;28;19913;-76
2022/06/27 06:39:10;;;;;;;;;;;17.50;99.90;;;;;;5088360;28;19989;-75
2022/06/27 06:41:36;;;;;;;;;;;17.60;99.90;;;;;;5081692;28;20307;-76
2022/06/27 06:44:02;;;;;;;;;;;17.70;99.90;;;;;;5100886;28;20323;-77
2022/06/27 06:46:28;;;;;;;;;;;17.80;99.90;;;;;;5086789;28;19965;-77
2022/06/27 06:49:02;;;;;;;;;;;17.90;99.90;;;;;;5078721;28;19920;-76
2022/06/27 06:51:29;;;;;;;;;;;17.90;99.90;;;;;;5086996;28;20014;-76
2022/06/27 06:53:54;;;;;;;;;;;18.00;99.90;;;;;;5093537;28;20341;-75
2022/06/27 06:56:20;;;;;;;;;;;18.20;99.90;;;;;;5097064;28;19915;-76
2022/06/27 06:58:47;;;;;;;;;;;18.20;99.90;;;;;;5112294;28;20237;-76
2022/06/27 07:01:12;;;;;;;;;;;18.30;99.90;;;;;;5088691;28;19912;-76
2022/06/27 07:03:38;;;;;;;;;;;18.40;99.90;;;;;;5103068;28;19969;-76
2022/06/27 07:06:04;;;;;;;;;;;18.40;99.90;;;;;;5090238;28;19916;-75
2022/06/27 07:08:30;;;;;;;;;;;18.50;99.90;;;;;;5093275;28;19923;-75
2022/06/27 07:10:56;;;;;;;;;;;18.40;99.90;;;;;;5102306;28;19959;-75
2022/06/27 07:13:23;;;;;;;;;;;18.50;99.90;;;;;;5087102;28;19951;-76
2022/06/27 07:15:48;;;;;;;;;;;18.50;99.90;;;;;;5083333;28;19917;-76
2022/06/27 07:18:14;;;;;;;;;;;18.60;99.90;;;;;;5085299;28;19946;-75
2022/06/27 07:20:40;;;;;;;;;;;18.60;99.90;;;;;;5069158;28;19975;-76
2022/06/27 07:23:06;;;;;;;;;;;18.70;99.90;;;;;;5095467;28;19920;-76
2022/06/27 07:25:33;;;;;;;;;;;18.70;99.90;;;;;;5090652;28;19999;-76
2022/06/27 07:27:59;;;;;;;;;;;18.70;99.90;;;;;;5089103;28;20015;-76
2022/06/27 07:30:25;;;;;;;;;;;18.70;99.90;;;;;;5085626;28;19994;-76
2022/06/27 07:32:50;;;;;;;;;;;18.70;99.90;;;;;;5084168;28;20270;-76
2022/06/27 07:35:17;;;;;;;;;;;18.70;99.90;;;;;;5068431;28;19970;-76
2022/06/27 07:37:45;;;;;;;;;;;18.70;99.90;;;;;;5083429;28;19912;-76
2022/06/27 07:40:11;;;;;;;;;;;18.80;99.90;;;;;;5069570;28;20002;-76
2022/06/27 07:42:38;;;;;;;;;;;18.80;99.90;;;;;;5090352;28;20292;-76
2022/06/27 07:45:04;;;;;;;;;;;18.80;99.90;;;;;;5091238;28;19913;-76
2022/06/27 07:47:29;;;;;;;;;;;18.80;99.90;;;;;;5091852;28;20317;-76
2022/06/27 07:49:55;;;;;;;;;;;18.80;99.90;;;;;;5073977;28;19957;-76
2022/06/27 07:52:21;;;;;;;;;;;18.80;99.90;;;;;;5082934;28;20295;-75
2022/06/27 07:54:48;;;;;;;;;;;18.90;99.90;;;;;;5077056;28;19912;-76
2022/06/27 07:57:14;;;;;;;;;;;18.90;99.90;;;;;;5086870;28;19912;-76
2022/06/27 07:59:40;;;;;;;;;;;18.90;99.90;;;;;;5083598;28;20275;-76
2022/06/27 08:02:06;;;;;;;;;;;19.00;99.90;;;;;;5089228;28;19912;-76
2022/06/27 08:04:32;;;;;;;;;;;19.00;99.90;;;;;;5091353;28;20310;-76
2022/06/27 08:06:58;;;;;;;;;;;19.10;99.90;;;;;;5089066;28;20219;-76
2022/06/27 08:09:24;;;;;;;;;;;19.10;99.90;;;;;;5120853;27;19920;-76
2022/06/27 08:11:49;;;;;;;;;;;19.20;99.90;;;;;;5096986;28;19924;-76
2022/06/27 08:14:17;;;;;;;;;;;19.20;99.90;;;;;;5095787;28;19939;-76
2022/06/27 08:16:45;;;;;;;;;;;19.20;99.90;;;;;;5090430;28;19916;-76
2022/06/27 08:19:11;;;;;;;;;;;19.20;99.90;;;;;;5090806;28;20299;-76
2022/06/27 08:21:41;;;;;;;;;;;19.10;99.90;;;;;;5066804;28;20391;-76
2022/06/27 08:24:08;;;;;;;;;;;19.10;99.90;;;;;;5095421;28;19919;-76
2022/06/27 08:26:35;;;;;;;;;;;19.10;99.90;;;;;;5089112;28;19920;-76
2022/06/27 08:29:02;;;;;;;;;;;19.20;99.90;;;;;;5087349;28;20011;-76
2022/06/27 08:31:29;;;;;;;;;;;19.30;99.90;;;;;;5095778;28;20394;-76
2022/06/27 08:33:58;;;;;;;;;;;19.30;99.90;;;;;;5118372;27;19977;-76
2022/06/27 08:36:26;;;;;;;;;;;19.40;99.90;;;;;;5093803;28;19938;-76
2022/06/27 08:38:52;;;;;;;;;;;19.40;99.90;;;;;;5095431;28;19916;-76
2022/06/27 08:41:18;;;;;;;;;;;19.40;99.90;;;;;;5090144;28;19966;-76
2022/06/27 08:43:46;;;;;;;;;;;19.50;99.90;;;;;;5092744;28;19922;-77
2022/06/27 08:46:15;;;;;;;;;;;19.60;99.90;;;;;;5092710;28;19920;-76
2022/06/27 08:48:41;;;;;;;;;;;19.80;99.90;;;;;;5087997;28;19919;-76
2022/06/27 08:51:07;;;;;;;;;;;19.80;99.90;;;;;;5092041;28;19916;-76
2022/06/27 08:53:38;;;;;;;;;;;19.90;99.90;;;;;;5090062;28;19965;-76
2022/06/27 08:56:05;;;;;;;;;;;20.00;99.90;;;;;;5091621;28;20203;-76
2022/06/27 08:58:31;;;;;;;;;;;20.00;99.90;;;;;;5086653;28;19912;-76
2022/06/27 09:00:56;;;;;;;;;;;20.10;99.90;;;;;;5092183;28;19969;-76
2022/06/27 09:03:22;;;;;;;;;;;20.00;99.90;;;;;;5093961;28;19916;-76
2022/06/27 09:05:54;;;;;;;;;;;20.00;99.90;;;;;;5090226;28;19919;-76
2022/06/27 09:08:20;;;;;;;;;;;20.00;99.90;;;;;;5087952;28;20284;-76
2022/06/27 09:10:46;;;;;;;;;;;19.90;99.90;;;;;;5101931;28;19971;-76
2022/06/27 09:13:14;;;;;;;;;;;19.90;99.90;;;;;;5092457;28;20015;-77
2022/06/27 09:15:51;;;;;;;;;;;19.80;99.90;;;;;;5093939;28;19918;-75
2022/06/27 09:18:20;;;;;;;;;;;19.80;99.90;;;;;;5087273;28;20402;-76
2022/06/27 09:20:46;;;;;;;;;;;19.80;99.90;;;;;;5090491;28;19916;-76
2022/06/27 09:23:40;;;;;;;;;;;19.80;99.90;;;;;;5091319;28;19916;-76
2022/06/27 09:26:09;;;;;;;;;;;19.70;99.90;;;;;;5091742;28;20338;-76
2022/06/27 09:28:48;;;;;;;;;;;19.70;99.90;;;;;;5085141;28;19916;-75
2022/06/27 09:31:24;;;;;;;;;;;19.70;99.90;;;;;;5064821;28;20300;-76
2022/06/27 09:33:59;;;;;;;;;;;19.60;99.90;;;;;;5055873;28;19916;-77
2022/06/27 09:36:27;;;;;;;;;;;19.60;99.90;;;;;;5090234;28;19999;-76
2022/06/27 09:38:52;;;;;;;;;;;19.70;99.90;;;;;;5092648;28;19985;-76
2022/06/27 09:41:19;;;;;;;;;;;19.70;99.90;;;;;;5115476;27;20302;-76
2022/06/27 09:43:46;;;;;;;;;;;19.70;99.90;;;;;;5078762;28;19999;-76
2022/06/27 09:46:13;;;;;;;;;;;19.70;99.90;;;;;;5090798;28;19927;-76
2022/06/27 09:48:42;;;;;;;;;;;19.60;99.90;;;;;;5086767;28;19916;-76
2022/06/27 09:51:10;;;;;;;;;;;19.60;99.90;;;;;;5116487;27;19973;-76
2022/06/27 09:53:36;;;;;;;;;;;19.60;99.90;;;;;;5093653;28;19912;-76
2022/06/27 09:56:05;;;;;;;;;;;19.60;99.90;;;;;;5084293;28;20425;-75
2022/06/27 09:58:33;;;;;;;;;;;19.60;99.90;;;;;;5113810;27;19924;-77
2022/06/27 10:00:58;;;;;;;;;;;19.60;99.90;;;;;;5090894;28;20015;-76
2022/06/27 10:03:24;;;;;;;;;;;19.60;99.90;;;;;;5089055;28;20259;-76
2022/06/27 10:05:50;;;;;;;;;;;19.70;99.90;;;;;;5092724;28;19912;-77
2022/06/27 10:08:16;;;;;;;;;;;19.70;99.90;;;;;;5085245;28;19912;-76
2022/06/27 10:11:04;;;;;;;;;;;19.80;99.90;;;;;;5092116;28;20621;-77
2022/06/27 10:13:30;;;;;;;;;;;19.90;99.90;;;;;;5090264;28;19919;-76
2022/06/27 10:16:04;;;;;;;;;;;19.90;99.90;;;;;;5107962;27;20211;-76
2022/06/27 10:18:50;;;;;;;;;;;20.00;99.90;;;;;;5091795;28;19916;-77
2022/06/27 10:21:26;;;;;;;;;;;20.00;99.90;;;;;;5087482;28;20026;-76
2022/06/27 10:24:10;;;;;;;;;;;20.00;99.90;;;;;;5092467;28;20307;-76
2022/06/27 10:26:40;;;;;;;;;;;20.10;99.90;;;;;;5085044;28;19919;-76
2022/06/27 10:29:24;;;;;;;;;;;20.20;99.90;;;;;;5092254;28;19969;-76
2022/06/27 10:31:50;;;;;;;;;;;20.30;99.90;;;;;;5085596;28;20303;-76
2022/06/27 10:34:16;;;;;;;;;;;20.30;99.90;;;;;;5078431;28;19920;-76
2022/06/27 10:36:41;;;;;;;;;;;20.30;99.90;;;;;;5111747;27;20341;-76
2022/06/27 10:39:18;;;;;;;;;;;20.30;99.90;;;;;;5078408;28;19916;-76
2022/06/27 10:41:44;;;;;;;;;;;20.30;99.90;;;;;;5098945;28;19920;-80
2022/06/27 10:44:29;;;;;;;;;;;20.20;99.90;;;;;;5087431;28;19916;-77
2022/06/27 10:46:55;;;;;;;;;;;20.20;99.90;;;;;;5084607;28;19923;-77
2022/06/27 10:49:21;;;;;;;;;;;20.20;99.90;;;;;;5087702;28;19912;-77
2022/06/27 10:51:47;;;;;;;;;;;20.20;99.90;;;;;;5088062;28;19916;-77
2022/06/27 10:54:12;;;;;;;;;;;20.20;99.90;;;;;;5090118;28;20253;-77
2022/06/27 10:56:51;;;;;;;;;;;20.30;99.90;;;;;;5088677;28;19912;-77
2022/06/27 10:59:16;;;;;;;;;;;20.40;99.90;;;;;;5082683;28;19924;-76
2022/06/27 11:01:51;;;;;;;;;;;20.50;99.90;;;;;;5082946;28;19912;-76
2022/06/27 11:04:24;;;;;;;;;;;20.50;99.90;;;;;;5086042;28;19970;-77
2022/06/27 11:06:55;;;;;;;;;;;20.60;99.90;;;;;;5088938;28;19923;-76
2022/06/27 11:09:33;;;;;;;;;;;20.60;99.90;;;;;;5086886;28;20266;-77
2022/06/27 11:11:59;;;;;;;;;;;20.50;99.90;;;;;;5089235;28;20031;-77
2022/06/27 11:14:25;;;;;;;;;;;20.40;99.90;;;;;;5091879;28;20286;-76
2022/06/27 11:16:51;;;;;;;;;;;20.40;99.90;;;;;;5115085;28;19916;-76
2022/06/27 11:22:17;;;;;;;;;;;20.50;99.90;;;;;;5090320;28;19961;-76
2022/06/27 11:24:45;;;;;;;;;;;20.50;99.90;;;;;;5092561;28;19912;-76
2022/06/27 11:27:11;;;;;;;;;;;20.60;99.90;;;;;;5084161;28;19919;-76
2022/06/27 11:32:21;;;;;;;;;;;20.80;99.90;;;;;;5090538;28;20314;-75
2022/06/27 11:34:50;;;;;;;;;;;20.90;99.90;;;;;;5090124;28;19913;-75
2022/06/27 11:37:17;;;;;;;;;;;21.00;99.90;;;;;;5085947;28;20298;-75
2022/06/27 11:39:56;;;;;;;;;;;21.10;99.90;;;;;;5095909;28;19916;-74
2022/06/27 11:42:27;;;;;;;;;;;21.10;99.90;;;;;;5095426;28;20006;-74
2022/06/27 11:45:03;;;;;;;;;;;21.10;99.90;;;;;;5095700;28;20299;-74
2022/06/27 11:47:29;;;;;;;;;;;21.30;99.90;;;;;;5096026;28;19913;-74
2022/06/27 11:50:11;;;;;;;;;;;21.30;99.90;;;;;;5095358;28;19918;-74
2022/06/27 11:52:55;;;;;;;;;;;21.40;99.90;;;;;;5105337;27;19916;-75
2022/06/27 11:55:24;;;;;;;;;;;21.30;99.90;;;;;;5092448;28;19946;-75
2022/06/27 11:57:57;;;;;;;;;;;21.20;99.90;;;;;;5095205;28;19919;-74
2022/06/27 12:00:23;;;;;;;;;;;21.00;99.90;;;;;;5093251;28;19919;-74
2022/06/27 12:02:58;;;;;;;;;;;21.00;99.90;;;;;;5090178;28;20334;-74
2022/06/27 12:05:25;;;;;;;;;;;20.90;99.90;;;;;;5094141;28;19923;-74
2022/06/27 12:07:50;;;;;;;;;;;20.70;99.90;;;;;;5092450;28;20361;-75
2022/06/27 12:10:16;;;;;;;;;;;20.60;99.90;;;;;;5093081;28;19915;-75
2022/06/27 12:12:45;;;;;;;;;;;20.50;99.90;;;;;;5095832;28;19931;-75
2022/06/27 12:15:20;;;;;;;;;;;20.50;99.90;;;;;;5093408;28;20265;-74
2022/06/27 12:17:46;;;;;;;;;;;20.40;99.90;;;;;;5094066;28;19912;-74
2022/06/27 12:20:12;;;;;;;;;;;20.40;99.90;;;;;;5092005;28;20257;-75
2022/06/27 12:22:40;;;;;;;;;;;20.30;99.90;;;;;;5094608;28;19923;-74
2022/06/27 12:25:06;;;;;;;;;;;20.20;99.90;;;;;;5091606;28;19999;-75
2022/06/27 12:27:31;;;;;;;;;;;20.20;99.90;;;;;;5107469;27;20014;-74
2022/06/27 12:29:58;;;;;;;;;;;20.20;99.90;;;;;;5117962;27;20006;-75
2022/06/27 12:32:24;;;;;;;;;;;20.10;99.90;;;;;;5106325;28;19923;-81
2022/06/27 12:34:49;;;;;;;;;;;19.90;99.90;;;;;;5095362;28;19920;-74
2022/06/27 12:37:15;;;;;;;;;;;19.70;99.90;;;;;;5092731;28;20378;-75
2022/06/27 12:39:40;;;;;;;;;;;19.50;99.90;;;;;;5087185;28;19930;-75
2022/06/27 12:42:06;;;;;;;;;;;19.40;99.90;;;;;;5090253;28;19912;-76
2022/06/27 12:44:32;;;;;;;;;;;19.30;99.90;;;;;;5095647;28;19959;-75
2022/06/27 12:46:57;;;;;;;;;;;19.30;99.90;;;;;;5090731;28;20348;-75
2022/06/27 12:49:23;;;;;;;;;;;19.20;99.90;;;;;;5091386;28;20226;-73
2022/06/27 12:51:49;;;;;;;;;;;19.10;99.90;;;;;;5093422;28;20314;-77
2022/06/27 12:54:14;;;;;;;;;;;19.00;99.90;;;;;;5093513;28;19924;-75
2022/06/27 12:56:40;;;;;;;;;;;18.90;99.90;;;;;;5090910;28;19912;-76
2022/06/27 12:59:06;;;;;;;;;;;18.90;99.90;;;;;;5087461;28;19955;-76
2022/06/27 13:01:31;;;;;;;;;;;18.80;99.90;;;;;;5083044;28;19920;-75
2022/06/27 13:03:57;;;;;;;;;;;18.70;99.90;;;;;;5107644;28;19927;-75
2022/06/27 13:06:22;;;;;;;;;;;18.60;99.90;;;;;;5083144;28;19956;-74
2022/06/27 13:08:48;;;;;;;;;;;18.50;99.90;;;;;;5093725;28;19974;-77
2022/06/27 13:11:14;;;;;;;;;;;18.40;99.90;;;;;;5083675;28;19924;-75
2022/06/27 13:13:39;;;;;;;;;;;18.50;99.90;;;;;;5077460;28;20315;-75
2022/06/27 13:16:05;;;;;;;;;;;18.50;99.90;;;;;;5085610;28;19912;-74
2022/06/27 13:18:31;;;;;;;;;;;18.50;99.90;;;;;;5089903;28;19916;-74
2022/06/27 13:20:57;;;;;;;;;;;18.50;99.90;;;;;;5087708;28;19920;-75
2022/06/27 13:23:22;;;;;;;;;;;18.40;99.90;;;;;;5076824;28;19913;-75
2022/06/27 13:25:48;;;;;;;;;;;18.40;99.90;;;;;;5088989;28;20282;-76
2022/06/27 13:28:14;;;;;;;;;;;18.40;99.90;;;;;;5081351;28;19920;-76
2022/06/27 13:30:39;;;;;;;;;;;18.30;99.90;;;;;;5113304;27;20023;-81
2022/06/27 13:33:05;;;;;;;;;;;18.00;99.90;;;;;;5083387;28;19999;-77
2022/06/27 13:35:31;;;;;;;;;;;17.90;99.90;;;;;;5089735;28;20007;-77
2022/06/27 13:37:57;;;;;;;;;;;17.80;99.90;;;;;;5092742;28;19912;-79
2022/06/27 13:40:23;;;;;;;;;;;17.70;99.90;;;;;;5107992;27;20367;-81
2022/06/27 13:42:49;;;;;;;;;;;17.70;99.90;;;;;;5090165;28;20011;-78
2022/06/27 13:45:14;;;;;;;;;;;17.60;99.90;;;;;;5085539;28;20023;-77
2022/06/27 13:47:40;;;;;;;;;;;17.50;99.90;;;;;;5083249;28;19912;-78
2022/06/27 13:50:06;;;;;;;;;;;17.40;99.90;;;;;;5112935;27;19934;-76
2022/06/27 13:52:31;;;;;;;;;;;17.10;99.90;;;;;;5087102;28;20292;-75
2022/06/27 13:54:59;;;;;;;;;;;16.40;99.90;;;;;;5089171;28;20035;-74
2022/06/27 13:57:25;;;;;;;;;;;16.00;99.90;;;;;;5091970;28;19916;-74
2022/06/27 13:59:50;;;;;;;;;;;15.60;99.90;;;;;;5088185;28;19916;-74
2022/06/27 14:02:16;;;;;;;;;;;15.50;99.90;;;;;;5088635;28;19970;-75
2022/06/27 14:04:41;;;;;;;;;;;15.40;99.90;;;;;;5088431;28;19915;-75
2022/06/27 14:09:51;;;;;;;;;;;15.20;99.90;;;;;;5093092;28;20415;-75
2022/06/27 14:12:17;;;;;;;;;;;15.20;99.90;;;;;;5106009;28;19932;-77
2022/06/27 14:14:42;;;;;;;;;;;15.10;99.90;;;;;;5088024;28;19920;-76
2022/06/27 14:17:08;;;;;;;;;;;15.00;99.90;;;;;;5088707;28;19916;-79
2022/06/27 14:19:35;;;;;;;;;;;15.00;99.90;;;;;;5085966;28;20019;-77
2022/06/27 14:22:01;;;;;;;;;;;14.90;99.90;;;;;;5096873;28;19920;-75
2022/06/27 14:24:27;;;;;;;;;;;14.80;99.90;;;;;;5082223;28;19916;-78
2022/06/27 14:26:52;;;;;;;;;;;14.90;99.90;;;;;;5084498;28;19965;-78